sensor_id;sensor_type;location;lat;lon;timestamp;temperature;humidity
5723;DHT22;2886;49.722;8.612;2023-02-01T00:00:15;6.40;99.90
5723;DHT22;2886;49.722;8.612;2023-02-01T00:02:41;6.40;99.90
5723;DHT22;2886;49.722;8.612;2023-02-01T00:05:09;6.40;99.90
5723;DHT22;2886;49.722;8.612;2023-02-01T00:07:35;6.40;99.90
5723;DHT22;2886;49.722;8.612;2023-02-01T00:10:01;6.40;99.90
5723;DHT22;2886;49.722;8.612;2023-02-01T00:12:28;6.40;99.90
5723;DHT22;2886;49.722;8.612;2023-02-01T00:14:54;6.40;99.90
5723;DHT22;2886;49.722;8.612;2023-02-01T00:17:20;6.30;99.90
5723;DHT22;2886;49.722;8.612;2023-02-01T00:19:45;6.30;99.90
5723;DHT22;2886;49.722;8.612;2023-02-01T00:22:11;6.30;99.90
5723;DHT22;2886;49.722;8.612;2023-02-01T00:24:38;6.30;99.90
5723;DHT22;2886;49.722;8.612;2023-02-01T00:27:03;6.30;99.90
5723;DHT22;2886;49.722;8.612;2023-02-01T00:29:30;6.30;99.90
5723;DHT22;2886;49.722;8.612;2023-02-01T00:31:55;6.30;99.90
5723;DHT22;2886;49.722;8.612;2023-02-01T00:34:21;6.20;99.90
5723;DHT22;2886;49.722;8.612;2023-02-01T00:36:47;6.20;99.90
5723;DHT22;2886;49.722;8.612;2023-02-01T00:39:13;6.20;99.90
5723;DHT22;2886;49.722;8.612;2023-02-01T00:41:39;6.20;99.90
5723;DHT22;2886;49.722;8.612;2023-02-01T00:44:06;6.20;99.90
5723;DHT22;2886;49.722;8.612;2023-02-01T00:46:32;6.20;99.90
5723;DHT22;2886;49.722;8.612;2023-02-01T00:48:58;6.20;99.90
5723;DHT22;2886;49.722;8.612;2023-02-01T00:51:26;6.20;99.90
5723;DHT22;2886;49.722;8.612;2023-02-01T00:53:52;6.20;99.90
5723;DHT22;2886;49.722;8.612;2023-02-01T00:56:18;6.20;99.90
5723;DHT22;2886;49.722;8.612;2023-02-01T01:03:44;6.20;99.90
5723;DHT22;2886;49.722;8.612;2023-02-01T01:06:13;6.20;99.90
5723;DHT22;2886;49.722;8.612;2023-02-01T01:08:40;6.20;99.90
5723;DHT22;2886;49.722;8.612;2023-02-01T01:11:20;6.20;99.90
5723;DHT22;2886;49.722;8.612;2023-02-01T01:13:50;6.20;99.90
5723;DHT22;2886;49.722;8.612;2023-02-01T01:16:17;6.20;99.90
5723;DHT22;2886;49.722;8.612;2023-02-01T01:18:44;6.20;99.90
5723;DHT22;2886;49.722;8.612;2023-02-01T01:21:11;6.30;99.90
5723;DHT22;2886;49.722;8.612;2023-02-01T01:23:37;6.30;99.90
5723;DHT22;2886;49.722;8.612;2023-02-01T01:26:09;6.30;99.90
5723;DHT22;2886;49.722;8.612;2023-02-01T01:28:35;6.30;99.90
5723;DHT22;2886;49.722;8.612;2023-02-01T01:31:01;6.30;99.90
5723;DHT22;2886;49.722;8.612;2023-02-01T01:33:26;6.30;99.90
5723;DHT22;2886;49.722;8.612;2023-02-01T01:35:52;6.30;99.90
5723;DHT22;2886;49.722;8.612;2023-02-01T01:38:18;6.30;99.90
5723;DHT22;2886;49.722;8.612;2023-02-01T01:40:47;6.30;99.90
5723;DHT22;2886;49.722;8.612;2023-02-01T01:43:15;6.30;99.90
5723;DHT22;2886;49.722;8.612;2023-02-01T01:45:41;6.30;99.90
5723;DHT22;2886;49.722;8.612;2023-02-01T01:50:41;6.30;99.90
5723;DHT22;2886;49.722;8.612;2023-02-01T01:53:10;6.30;99.90
5723;DHT22;2886;49.722;8.612;2023-02-01T01:55:42;6.30;99.90
5723;DHT22;2886;49.722;8.612;2023-02-01T01:58:11;6.30;99.90
5723;DHT22;2886;49.722;8.612;2023-02-01T02:00:38;6.30;99.90
5723;DHT22;2886;49.722;8.612;2023-02-01T02:03:14;6.30;99.90
5723;DHT22;2886;49.722;8.612;2023-02-01T02:05:40;6.20;99.90
5723;DHT22;2886;49.722;8.612;2023-02-01T02:08:06;6.20;99.90
5723;DHT22;2886;49.722;8.612;2023-02-01T02:10:32;6.20;99.90
5723;DHT22;2886;49.722;8.612;2023-02-01T02:13:17;6.20;99.90
5723;DHT22;2886;49.722;8.612;2023-02-01T02:16:07;6.10;99.90
5723;DHT22;2886;49.722;8.612;2023-02-01T02:21:49;6.10;99.90
5723;DHT22;2886;49.722;8.612;2023-02-01T02:27:39;6.10;99.90
5723;DHT22;2886;49.722;8.612;2023-02-01T02:30:22;6.10;99.90
5723;DHT22;2886;49.722;8.612;2023-02-01T02:35:49;6.10;99.90
5723;DHT22;2886;49.722;8.612;2023-02-01T02:45:06;6.10;99.90
5723;DHT22;2886;49.722;8.612;2023-02-01T02:50:58;6.10;99.90
5723;DHT22;2886;49.722;8.612;2023-02-01T02:56:44;6.10;99.90
5723;DHT22;2886;49.722;8.612;2023-02-01T02:59:28;6.10;99.90
5723;DHT22;2886;49.722;8.612;2023-02-01T03:02:14;6.10;99.90
5723;DHT22;2886;49.722;8.612;2023-02-01T03:04:59;6.10;99.90
5723;DHT22;2886;49.722;8.612;2023-02-01T03:07:49;6.10;99.90
5723;DHT22;2886;49.722;8.612;2023-02-01T03:10:26;6.10;99.90
5723;DHT22;2886;49.722;8.612;2023-02-01T03:13:04;6.10;99.90
5723;DHT22;2886;49.722;8.612;2023-02-01T03:16:20;6.10;99.90
5723;DHT22;2886;49.722;8.612;2023-02-01T03:18:42;6.10;99.90
5723;DHT22;2886;49.722;8.612;2023-02-01T03:21:16;6.10;99.90
5723;DHT22;2886;49.722;8.612;2023-02-01T03:23:44;6.10;99.90
5723;DHT22;2886;49.722;8.612;2023-02-01T03:26:13;6.20;99.90
5723;DHT22;2886;49.722;8.612;2023-02-01T03:28:52;6.10;99.90
5723;DHT22;2886;49.722;8.612;2023-02-01T03:31:20;6.10;99.90
5723;DHT22;2886;49.722;8.612;2023-02-01T03:33:46;6.10;99.90
5723;DHT22;2886;49.722;8.612;2023-02-01T03:36:29;6.10;99.90
5723;DHT22;2886;49.722;8.612;2023-02-01T03:39:44;6.10;99.90
5723;DHT22;2886;49.722;8.612;2023-02-01T03:42:18;6.10;99.90
5723;DHT22;2886;49.722;8.612;2023-02-01T03:45:03;6.10;99.90
5723;DHT22;2886;49.722;8.612;2023-02-01T03:47:36;6.10;99.90
5723;DHT22;2886;49.722;8.612;2023-02-01T03:50:15;6.00;99.90
5723;DHT22;2886;49.722;8.612;2023-02-01T03:52:48;6.00;99.90
5723;DHT22;2886;49.722;8.612;2023-02-01T03:55:18;5.90;99.90
5723;DHT22;2886;49.722;8.612;2023-02-01T03:58:16;6.00;99.90
5723;DHT22;2886;49.722;8.612;2023-02-01T04:00:55;6.00;99.90
5723;DHT22;2886;49.722;8.612;2023-02-01T04:03:21;6.00;99.90
5723;DHT22;2886;49.722;8.612;2023-02-01T04:05:51;6.00;99.90
5723;DHT22;2886;49.722;8.612;2023-02-01T04:08:19;6.00;99.90
5723;DHT22;2886;49.722;8.612;2023-02-01T04:10:44;5.90;99.90
5723;DHT22;2886;49.722;8.612;2023-02-01T04:13:11;5.90;99.90
5723;DHT22;2886;49.722;8.612;2023-02-01T04:15:37;5.90;99.90
5723;DHT22;2886;49.722;8.612;2023-02-01T04:18:03;5.90;99.90
5723;DHT22;2886;49.722;8.612;2023-02-01T04:20:29;5.90;99.90
5723;DHT22;2886;49.722;8.612;2023-02-01T04:22:54;5.90;99.90
5723;DHT22;2886;49.722;8.612;2023-02-01T04:25:20;5.90;99.90
5723;DHT22;2886;49.722;8.612;2023-02-01T04:27:46;5.80;99.90
5723;DHT22;2886;49.722;8.612;2023-02-01T04:30:13;5.80;99.90
5723;DHT22;2886;49.722;8.612;2023-02-01T04:32:39;5.80;99.90
5723;DHT22;2886;49.722;8.612;2023-02-01T04:35:06;5.80;99.90
5723;DHT22;2886;49.722;8.612;2023-02-01T04:37:31;5.80;99.90
5723;DHT22;2886;49.722;8.612;2023-02-01T04:39:57;5.80;99.90
5723;DHT22;2886;49.722;8.612;2023-02-01T04:42:23;5.80;99.90
5723;DHT22;2886;49.722;8.612;2023-02-01T04:44:48;5.80;99.90
5723;DHT22;2886;49.722;8.612;2023-02-01T04:47:14;5.80;99.90
5723;DHT22;2886;49.722;8.612;2023-02-01T04:49:41;5.80;99.90
5723;DHT22;2886;49.722;8.612;2023-02-01T04:52:07;5.80;99.90
5723;DHT22;2886;49.722;8.612;2023-02-01T04:54:32;5.80;99.90
5723;DHT22;2886;49.722;8.612;2023-02-01T04:56:58;5.80;99.90
5723;DHT22;2886;49.722;8.612;2023-02-01T04:59:24;5.80;99.90
5723;DHT22;2886;49.722;8.612;2023-02-01T05:01:50;5.80;99.90
5723;DHT22;2886;49.722;8.612;2023-02-01T05:04:16;5.80;99.90
5723;DHT22;2886;49.722;8.612;2023-02-01T05:06:44;5.80;99.90
5723;DHT22;2886;49.722;8.612;2023-02-01T05:09:10;5.80;99.90
5723;DHT22;2886;49.722;8.612;2023-02-01T05:11:36;5.90;99.90
5723;DHT22;2886;49.722;8.612;2023-02-01T05:14:20;5.90;99.90
5723;DHT22;2886;49.722;8.612;2023-02-01T05:16:46;5.90;99.90
5723;DHT22;2886;49.722;8.612;2023-02-01T05:19:11;5.90;99.90
5723;DHT22;2886;49.722;8.612;2023-02-01T05:21:38;5.90;99.90
5723;DHT22;2886;49.722;8.612;2023-02-01T05:24:04;5.80;99.90
5723;DHT22;2886;49.722;8.612;2023-02-01T05:26:36;5.80;99.90
5723;DHT22;2886;49.722;8.612;2023-02-01T05:29:03;5.80;99.90
5723;DHT22;2886;49.722;8.612;2023-02-01T05:31:29;5.90;99.90
5723;DHT22;2886;49.722;8.612;2023-02-01T05:33:55;5.90;99.90
5723;DHT22;2886;49.722;8.612;2023-02-01T05:36:20;5.90;99.90
5723;DHT22;2886;49.722;8.612;2023-02-01T05:38:46;5.90;99.90
5723;DHT22;2886;49.722;8.612;2023-02-01T05:41:12;5.90;99.90
5723;DHT22;2886;49.722;8.612;2023-02-01T05:43:37;5.90;99.90
5723;DHT22;2886;49.722;8.612;2023-02-01T05:46:03;5.90;99.90
5723;DHT22;2886;49.722;8.612;2023-02-01T05:48:29;5.80;99.90
5723;DHT22;2886;49.722;8.612;2023-02-01T05:50:55;5.80;99.90
5723;DHT22;2886;49.722;8.612;2023-02-01T05:53:20;5.80;99.90
5723;DHT22;2886;49.722;8.612;2023-02-01T05:55:46;5.80;99.90
5723;DHT22;2886;49.722;8.612;2023-02-01T05:58:11;5.70;99.90
5723;DHT22;2886;49.722;8.612;2023-02-01T06:00:38;5.80;99.90
5723;DHT22;2886;49.722;8.612;2023-02-01T06:03:04;5.70;99.90
5723;DHT22;2886;49.722;8.612;2023-02-01T06:05:29;5.70;99.90
5723;DHT22;2886;49.722;8.612;2023-02-01T06:07:55;5.70;99.90
5723;DHT22;2886;49.722;8.612;2023-02-01T06:10:21;5.70;99.90
5723;DHT22;2886;49.722;8.612;2023-02-01T06:12:47;5.70;99.90
5723;DHT22;2886;49.722;8.612;2023-02-01T06:15:13;5.80;99.90
5723;DHT22;2886;49.722;8.612;2023-02-01T06:17:41;5.70;99.90
5723;DHT22;2886;49.722;8.612;2023-02-01T06:20:09;5.80;99.90
5723;DHT22;2886;49.722;8.612;2023-02-01T06:22:34;5.80;99.90
5723;DHT22;2886;49.722;8.612;2023-02-01T06:25:02;5.80;99.90
5723;DHT22;2886;49.722;8.612;2023-02-01T06:27:27;5.80;99.90
5723;DHT22;2886;49.722;8.612;2023-02-01T06:29:53;5.80;99.90
5723;DHT22;2886;49.722;8.612;2023-02-01T06:32:20;5.80;99.90
5723;DHT22;2886;49.722;8.612;2023-02-01T06:34:46;5.80;99.90
5723;DHT22;2886;49.722;8.612;2023-02-01T06:37:12;5.90;99.90
5723;DHT22;2886;49.722;8.612;2023-02-01T06:39:38;5.90;99.90
5723;DHT22;2886;49.722;8.612;2023-02-01T06:42:03;5.90;99.90
5723;DHT22;2886;49.722;8.612;2023-02-01T06:44:29;5.90;99.90
5723;DHT22;2886;49.722;8.612;2023-02-01T06:46:55;6.00;99.90
5723;DHT22;2886;49.722;8.612;2023-02-01T06:49:21;6.00;99.90
5723;DHT22;2886;49.722;8.612;2023-02-01T06:51:46;6.00;99.90
5723;DHT22;2886;49.722;8.612;2023-02-01T06:54:12;5.90;99.90
5723;DHT22;2886;49.722;8.612;2023-02-01T06:56:38;6.00;99.90
5723;DHT22;2886;49.722;8.612;2023-02-01T06:59:05;6.00;99.90
5723;DHT22;2886;49.722;8.612;2023-02-01T07:01:30;6.00;99.90
5723;DHT22;2886;49.722;8.612;2023-02-01T07:03:56;6.00;99.90
5723;DHT22;2886;49.722;8.612;2023-02-01T07:06:22;6.00;99.90
5723;DHT22;2886;49.722;8.612;2023-02-01T07:08:48;5.90;99.90
5723;DHT22;2886;49.722;8.612;2023-02-01T07:11:15;5.90;99.90
5723;DHT22;2886;49.722;8.612;2023-02-01T07:13:41;5.80;99.90
5723;DHT22;2886;49.722;8.612;2023-02-01T07:16:10;5.80;99.90
5723;DHT22;2886;49.722;8.612;2023-02-01T07:18:36;5.80;99.90
5723;DHT22;2886;49.722;8.612;2023-02-01T07:21:02;5.70;99.90
5723;DHT22;2886;49.722;8.612;2023-02-01T07:23:28;5.60;99.90
5723;DHT22;2886;49.722;8.612;2023-02-01T07:25:59;5.50;99.90
5723;DHT22;2886;49.722;8.612;2023-02-01T07:28:33;5.50;99.90
5723;DHT22;2886;49.722;8.612;2023-02-01T07:31:08;5.40;99.90
5723;DHT22;2886;49.722;8.612;2023-02-01T07:33:34;5.40;99.90
5723;DHT22;2886;49.722;8.612;2023-02-01T07:36:04;5.30;99.90
5723;DHT22;2886;49.722;8.612;2023-02-01T07:38:30;5.30;99.90
5723;DHT22;2886;49.722;8.612;2023-02-01T07:41:00;5.30;99.90
5723;DHT22;2886;49.722;8.612;2023-02-01T07:43:27;5.20;99.90
5723;DHT22;2886;49.722;8.612;2023-02-01T07:45:54;5.20;99.90
5723;DHT22;2886;49.722;8.612;2023-02-01T07:48:20;5.20;99.90
5723;DHT22;2886;49.722;8.612;2023-02-01T07:50:46;5.20;99.90
5723;DHT22;2886;49.722;8.612;2023-02-01T07:53:13;5.20;99.90
5723;DHT22;2886;49.722;8.612;2023-02-01T07:55:39;5.10;99.90
5723;DHT22;2886;49.722;8.612;2023-02-01T07:58:05;5.10;99.90
5723;DHT22;2886;49.722;8.612;2023-02-01T08:00:31;5.10;99.90
5723;DHT22;2886;49.722;8.612;2023-02-01T08:03:15;5.10;99.90
5723;DHT22;2886;49.722;8.612;2023-02-01T08:05:41;5.20;99.90
5723;DHT22;2886;49.722;8.612;2023-02-01T08:08:07;5.30;99.90
5723;DHT22;2886;49.722;8.612;2023-02-01T08:10:33;5.40;99.90
5723;DHT22;2886;49.722;8.612;2023-02-01T08:13:00;5.50;99.90
5723;DHT22;2886;49.722;8.612;2023-02-01T08:15:29;5.40;99.90
5723;DHT22;2886;49.722;8.612;2023-02-01T08:17:55;5.50;99.90
5723;DHT22;2886;49.722;8.612;2023-02-01T08:20:21;5.50;99.90
5723;DHT22;2886;49.722;8.612;2023-02-01T08:22:49;5.50;99.90
5723;DHT22;2886;49.722;8.612;2023-02-01T08:25:15;5.50;99.90
5723;DHT22;2886;49.722;8.612;2023-02-01T08:27:40;5.50;99.90
5723;DHT22;2886;49.722;8.612;2023-02-01T08:30:06;5.60;99.90
5723;DHT22;2886;49.722;8.612;2023-02-01T08:32:34;5.60;99.90
5723;DHT22;2886;49.722;8.612;2023-02-01T08:34:59;5.80;99.90
5723;DHT22;2886;49.722;8.612;2023-02-01T08:37:25;5.90;99.90
5723;DHT22;2886;49.722;8.612;2023-02-01T08:39:50;6.00;99.90
5723;DHT22;2886;49.722;8.612;2023-02-01T08:42:17;6.10;99.90
5723;DHT22;2886;49.722;8.612;2023-02-01T08:45:01;6.20;99.90
5723;DHT22;2886;49.722;8.612;2023-02-01T08:47:28;6.20;99.90
5723;DHT22;2886;49.722;8.612;2023-02-01T08:49:54;6.20;99.90
5723;DHT22;2886;49.722;8.612;2023-02-01T08:52:20;6.30;99.90
5723;DHT22;2886;49.722;8.612;2023-02-01T08:54:45;6.40;99.90
5723;DHT22;2886;49.722;8.612;2023-02-01T08:57:11;6.60;99.90
5723;DHT22;2886;49.722;8.612;2023-02-01T08:59:37;6.70;99.90
5723;DHT22;2886;49.722;8.612;2023-02-01T09:02:03;6.80;99.90
5723;DHT22;2886;49.722;8.612;2023-02-01T09:04:28;6.80;99.90
5723;DHT22;2886;49.722;8.612;2023-02-01T09:06:54;6.90;99.90
5723;DHT22;2886;49.722;8.612;2023-02-01T09:09:21;6.90;99.90
5723;DHT22;2886;49.722;8.612;2023-02-01T09:11:47;6.90;99.90
5723;DHT22;2886;49.722;8.612;2023-02-01T09:14:13;6.90;99.90
5723;DHT22;2886;49.722;8.612;2023-02-01T09:16:38;6.80;99.90
5723;DHT22;2886;49.722;8.612;2023-02-01T09:19:04;6.80;99.90
5723;DHT22;2886;49.722;8.612;2023-02-01T09:21:29;6.80;99.90
5723;DHT22;2886;49.722;8.612;2023-02-01T09:23:55;6.80;99.90
5723;DHT22;2886;49.722;8.612;2023-02-01T09:26:21;6.80;99.90
5723;DHT22;2886;49.722;8.612;2023-02-01T09:28:46;6.70;99.90
5723;DHT22;2886;49.722;8.612;2023-02-01T09:31:12;6.70;99.90
5723;DHT22;2886;49.722;8.612;2023-02-01T09:33:38;6.80;99.90
5723;DHT22;2886;49.722;8.612;2023-02-01T09:36:05;6.80;99.90
5723;DHT22;2886;49.722;8.612;2023-02-01T09:38:31;6.90;99.90
5723;DHT22;2886;49.722;8.612;2023-02-01T09:40:58;6.90;99.90
5723;DHT22;2886;49.722;8.612;2023-02-01T09:43:53;7.00;99.90
5723;DHT22;2886;49.722;8.612;2023-02-01T09:46:28;7.20;99.90
5723;DHT22;2886;49.722;8.612;2023-02-01T09:48:57;7.30;99.90
5723;DHT22;2886;49.722;8.612;2023-02-01T09:51:30;7.40;99.90
5723;DHT22;2886;49.722;8.612;2023-02-01T09:53:58;7.40;99.90
5723;DHT22;2886;49.722;8.612;2023-02-01T09:57:16;7.40;99.90
5723;DHT22;2886;49.722;8.612;2023-02-01T09:59:42;7.40;99.90
5723;DHT22;2886;49.722;8.612;2023-02-01T10:02:22;7.30;99.90
5723;DHT22;2886;49.722;8.612;2023-02-01T10:04:49;7.20;99.90
5723;DHT22;2886;49.722;8.612;2023-02-01T10:10:06;7.20;99.90
5723;DHT22;2886;49.722;8.612;2023-02-01T10:15:40;7.20;99.90
5723;DHT22;2886;49.722;8.612;2023-02-01T10:24:02;7.10;99.90
5723;DHT22;2886;49.722;8.612;2023-02-01T10:26:35;7.10;99.90
5723;DHT22;2886;49.722;8.612;2023-02-01T10:29:12;7.20;99.90
5723;DHT22;2886;49.722;8.612;2023-02-01T10:31:40;7.20;99.90
5723;DHT22;2886;49.722;8.612;2023-02-01T10:34:31;7.30;99.90
5723;DHT22;2886;49.722;8.612;2023-02-01T10:39:46;7.40;99.90
5723;DHT22;2886;49.722;8.612;2023-02-01T10:42:13;7.50;99.90
5723;DHT22;2886;49.722;8.612;2023-02-01T10:44:43;7.50;99.90
5723;DHT22;2886;49.722;8.612;2023-02-01T10:47:10;7.60;99.90
5723;DHT22;2886;49.722;8.612;2023-02-01T10:49:47;7.60;99.90
5723;DHT22;2886;49.722;8.612;2023-02-01T10:52:18;7.70;99.90
5723;DHT22;2886;49.722;8.612;2023-02-01T10:54:45;7.80;99.90
5723;DHT22;2886;49.722;8.612;2023-02-01T10:57:25;7.80;99.90
5723;DHT22;2886;49.722;8.612;2023-02-01T10:59:54;7.90;99.90
5723;DHT22;2886;49.722;8.612;2023-02-01T11:02:30;7.90;99.90
5723;DHT22;2886;49.722;8.612;2023-02-01T11:05:03;8.00;99.90
5723;DHT22;2886;49.722;8.612;2023-02-01T11:07:30;8.00;99.90
5723;DHT22;2886;49.722;8.612;2023-02-01T11:09:56;7.90;99.90
5723;DHT22;2886;49.722;8.612;2023-02-01T11:12:32;7.90;99.90
5723;DHT22;2886;49.722;8.612;2023-02-01T11:15:22;7.90;99.90
5723;DHT22;2886;49.722;8.612;2023-02-01T11:17:51;7.80;99.90
5723;DHT22;2886;49.722;8.612;2023-02-01T11:20:41;7.90;99.90
5723;DHT22;2886;49.722;8.612;2023-02-01T11:23:18;7.90;99.90
5723;DHT22;2886;49.722;8.612;2023-02-01T11:26:12;7.90;99.90
5723;DHT22;2886;49.722;8.612;2023-02-01T11:28:40;7.80;99.90
5723;DHT22;2886;49.722;8.612;2023-02-01T11:31:12;7.70;99.90
5723;DHT22;2886;49.722;8.612;2023-02-01T11:33:50;7.70;99.90
5723;DHT22;2886;49.722;8.612;2023-02-01T11:36:20;7.70;99.90
5723;DHT22;2886;49.722;8.612;2023-02-01T11:38:52;7.80;99.90
5723;DHT22;2886;49.722;8.612;2023-02-01T11:41:27;7.80;99.90
5723;DHT22;2886;49.722;8.612;2023-02-01T11:43:58;7.80;99.90
5723;DHT22;2886;49.722;8.612;2023-02-01T11:46:32;7.80;99.90
5723;DHT22;2886;49.722;8.612;2023-02-01T11:51:59;7.90;99.90
5723;DHT22;2886;49.722;8.612;2023-02-01T11:57:27;7.90;99.90
5723;DHT22;2886;49.722;8.612;2023-02-01T12:03:07;8.00;99.90
5723;DHT22;2886;49.722;8.612;2023-02-01T12:19:23;8.40;99.90
5723;DHT22;2886;49.722;8.612;2023-02-01T12:33:15;8.40;99.90
5723;DHT22;2886;49.722;8.612;2023-02-01T12:46:33;8.30;99.90
5723;DHT22;2886;49.722;8.612;2023-02-01T12:49:17;8.30;99.90
5723;DHT22;2886;49.722;8.612;2023-02-01T12:51:47;8.40;99.90
5723;DHT22;2886;49.722;8.612;2023-02-01T12:59:28;8.50;99.30
5723;DHT22;2886;49.722;8.612;2023-02-01T13:02:01;8.60;99.90
5723;DHT22;2886;49.722;8.612;2023-02-01T13:04:36;8.60;99.90
5723;DHT22;2886;49.722;8.612;2023-02-01T13:07:10;8.50;99.90
5723;DHT22;2886;49.722;8.612;2023-02-01T13:09:57;8.40;99.90
5723;DHT22;2886;49.722;8.612;2023-02-01T13:12:36;8.40;99.90
5723;DHT22;2886;49.722;8.612;2023-02-01T13:15:13;8.30;99.90
5723;DHT22;2886;49.722;8.612;2023-02-01T13:17:40;8.30;99.90
5723;DHT22;2886;49.722;8.612;2023-02-01T13:20:43;8.20;99.90
5723;DHT22;2886;49.722;8.612;2023-02-01T13:25:50;8.10;99.90
5723;DHT22;2886;49.722;8.612;2023-02-01T13:28:40;8.00;99.90
5723;DHT22;2886;49.722;8.612;2023-02-01T13:37:14;7.90;99.90
5723;DHT22;2886;49.722;8.612;2023-02-01T13:42:57;7.90;99.90
5723;DHT22;2886;49.722;8.612;2023-02-01T13:45:30;7.80;99.90
5723;DHT22;2886;49.722;8.612;2023-02-01T13:48:03;7.80;99.90
5723;DHT22;2886;49.722;8.612;2023-02-01T13:50:33;7.80;99.90
5723;DHT22;2886;49.722;8.612;2023-02-01T13:53:03;7.80;99.90
5723;DHT22;2886;49.722;8.612;2023-02-01T13:55:55;7.80;99.90
5723;DHT22;2886;49.722;8.612;2023-02-01T14:04:00;7.80;99.90
5723;DHT22;2886;49.722;8.612;2023-02-01T14:09:13;7.80;99.90
5723;DHT22;2886;49.722;8.612;2023-02-01T14:21:54;7.80;99.90
5723;DHT22;2886;49.722;8.612;2023-02-01T14:24:34;7.70;99.90
5723;DHT22;2886;49.722;8.612;2023-02-01T14:27:02;7.70;99.90
5723;DHT22;2886;49.722;8.612;2023-02-01T14:29:43;7.70;99.90
5723;DHT22;2886;49.722;8.612;2023-02-01T14:32:18;7.60;99.90
5723;DHT22;2886;49.722;8.612;2023-02-01T14:58:27;7.70;99.90
5723;DHT22;2886;49.722;8.612;2023-02-01T15:00:56;7.70;99.90
5723;DHT22;2886;49.722;8.612;2023-02-01T15:03:47;7.70;99.90
5723;DHT22;2886;49.722;8.612;2023-02-01T15:09:15;7.80;99.90
5723;DHT22;2886;49.722;8.612;2023-02-01T15:14:33;7.80;99.90
5723;DHT22;2886;49.722;8.612;2023-02-01T15:17:00;7.80;99.90
5723;DHT22;2886;49.722;8.612;2023-02-01T15:19:28;7.80;99.90
5723;DHT22;2886;49.722;8.612;2023-02-01T15:21:56;7.80;99.90
5723;DHT22;2886;49.722;8.612;2023-02-01T15:24:25;7.80;99.90
5723;DHT22;2886;49.722;8.612;2023-02-01T15:26:53;7.80;99.90
5723;DHT22;2886;49.722;8.612;2023-02-01T15:29:20;7.80;99.90
5723;DHT22;2886;49.722;8.612;2023-02-01T15:31:49;7.80;99.90
5723;DHT22;2886;49.722;8.612;2023-02-01T15:34:15;7.90;99.90
5723;DHT22;2886;49.722;8.612;2023-02-01T15:36:42;7.90;99.90
5723;DHT22;2886;49.722;8.612;2023-02-01T15:39:27;8.00;99.90
5723;DHT22;2886;49.722;8.612;2023-02-01T15:41:58;8.00;99.90
5723;DHT22;2886;49.722;8.612;2023-02-01T15:44:33;8.00;99.90
5723;DHT22;2886;49.722;8.612;2023-02-01T15:46:59;8.00;99.90
5723;DHT22;2886;49.722;8.612;2023-02-01T15:49:32;8.00;99.90
5723;DHT22;2886;49.722;8.612;2023-02-01T15:52:02;8.00;99.90
5723;DHT22;2886;49.722;8.612;2023-02-01T15:54:48;8.00;99.90
5723;DHT22;2886;49.722;8.612;2023-02-01T15:57:27;7.90;99.90
5723;DHT22;2886;49.722;8.612;2023-02-01T16:00:18;7.90;99.90
5723;DHT22;2886;49.722;8.612;2023-02-01T16:03:00;7.90;99.90
5723;DHT22;2886;49.722;8.612;2023-02-01T16:05:29;7.80;99.90
5723;DHT22;2886;49.722;8.612;2023-02-01T16:08:15;7.80;99.90
5723;DHT22;2886;49.722;8.612;2023-02-01T16:10:44;7.80;99.90
5723;DHT22;2886;49.722;8.612;2023-02-01T16:13:11;7.80;99.90
5723;DHT22;2886;49.722;8.612;2023-02-01T16:15:38;7.80;99.90
5723;DHT22;2886;49.722;8.612;2023-02-01T16:18:04;7.80;99.90
5723;DHT22;2886;49.722;8.612;2023-02-01T16:20:30;7.70;99.90
5723;DHT22;2886;49.722;8.612;2023-02-01T16:22:56;7.70;99.90
5723;DHT22;2886;49.722;8.612;2023-02-01T16:25:22;7.70;99.90
5723;DHT22;2886;49.722;8.612;2023-02-01T16:27:48;7.70;99.90
5723;DHT22;2886;49.722;8.612;2023-02-01T16:30:14;7.60;99.90
5723;DHT22;2886;49.722;8.612;2023-02-01T16:32:41;7.60;99.90
5723;DHT22;2886;49.722;8.612;2023-02-01T16:35:30;7.60;99.90
5723;DHT22;2886;49.722;8.612;2023-02-01T16:38:04;7.60;99.90
5723;DHT22;2886;49.722;8.612;2023-02-01T16:40:34;7.60;99.90
5723;DHT22;2886;49.722;8.612;2023-02-01T16:42:59;7.60;99.90
5723;DHT22;2886;49.722;8.612;2023-02-01T16:45:25;7.60;99.90
5723;DHT22;2886;49.722;8.612;2023-02-01T16:47:54;7.60;99.90
5723;DHT22;2886;49.722;8.612;2023-02-01T16:50:24;7.50;99.90
5723;DHT22;2886;49.722;8.612;2023-02-01T16:52:52;7.50;99.90
5723;DHT22;2886;49.722;8.612;2023-02-01T16:55:19;7.50;99.90
5723;DHT22;2886;49.722;8.612;2023-02-01T16:57:47;7.60;99.90
5723;DHT22;2886;49.722;8.612;2023-02-01T17:00:13;7.50;99.90
5723;DHT22;2886;49.722;8.612;2023-02-01T17:02:41;7.50;99.90
5723;DHT22;2886;49.722;8.612;2023-02-01T17:05:08;7.50;99.90
5723;DHT22;2886;49.722;8.612;2023-02-01T17:07:35;7.50;99.90
5723;DHT22;2886;49.722;8.612;2023-02-01T17:10:01;7.50;99.90
5723;DHT22;2886;49.722;8.612;2023-02-01T17:12:30;7.50;99.90
5723;DHT22;2886;49.722;8.612;2023-02-01T17:14:56;7.50;99.90
5723;DHT22;2886;49.722;8.612;2023-02-01T17:17:23;7.50;99.90
5723;DHT22;2886;49.722;8.612;2023-02-01T17:19:51;7.50;99.90
5723;DHT22;2886;49.722;8.612;2023-02-01T17:22:22;7.50;99.90
5723;DHT22;2886;49.722;8.612;2023-02-01T17:24:48;7.50;99.90
5723;DHT22;2886;49.722;8.612;2023-02-01T17:27:16;7.50;99.90
5723;DHT22;2886;49.722;8.612;2023-02-01T17:29:42;7.50;99.90
5723;DHT22;2886;49.722;8.612;2023-02-01T17:32:22;7.40;99.90
5723;DHT22;2886;49.722;8.612;2023-02-01T17:34:48;7.40;99.90
5723;DHT22;2886;49.722;8.612;2023-02-01T17:37:28;7.40;99.90
5723;DHT22;2886;49.722;8.612;2023-02-01T17:39:54;7.30;99.90
5723;DHT22;2886;49.722;8.612;2023-02-01T17:42:20;7.20;99.90
5723;DHT22;2886;49.722;8.612;2023-02-01T17:44:46;7.20;99.90
5723;DHT22;2886;49.722;8.612;2023-02-01T17:47:12;7.20;99.90
5723;DHT22;2886;49.722;8.612;2023-02-01T17:49:38;7.20;99.90
5723;DHT22;2886;49.722;8.612;2023-02-01T17:52:04;7.20;99.90
5723;DHT22;2886;49.722;8.612;2023-02-01T17:54:30;7.20;99.90
5723;DHT22;2886;49.722;8.612;2023-02-01T17:56:56;7.20;99.90
5723;DHT22;2886;49.722;8.612;2023-02-01T17:59:25;7.10;99.90
5723;DHT22;2886;49.722;8.612;2023-02-01T18:01:51;7.10;99.90
5723;DHT22;2886;49.722;8.612;2023-02-01T18:04:18;7.10;99.90
5723;DHT22;2886;49.722;8.612;2023-02-01T18:06:44;7.10;99.90
5723;DHT22;2886;49.722;8.612;2023-02-01T18:09:10;7.20;99.90
5723;DHT22;2886;49.722;8.612;2023-02-01T18:11:36;7.20;99.90
5723;DHT22;2886;49.722;8.612;2023-02-01T18:14:01;7.10;99.90
5723;DHT22;2886;49.722;8.612;2023-02-01T18:16:29;7.10;99.90
5723;DHT22;2886;49.722;8.612;2023-02-01T18:18:55;7.00;99.90
5723;DHT22;2886;49.722;8.612;2023-02-01T18:21:37;7.00;99.90
5723;DHT22;2886;49.722;8.612;2023-02-01T18:24:05;7.00;99.90
5723;DHT22;2886;49.722;8.612;2023-02-01T18:26:30;7.00;99.90
5723;DHT22;2886;49.722;8.612;2023-02-01T18:28:56;7.10;99.90
5723;DHT22;2886;49.722;8.612;2023-02-01T18:31:24;7.10;99.90
5723;DHT22;2886;49.722;8.612;2023-02-01T18:33:51;7.10;99.90
5723;DHT22;2886;49.722;8.612;2023-02-01T18:36:17;7.10;99.90
5723;DHT22;2886;49.722;8.612;2023-02-01T18:38:42;7.10;99.90
5723;DHT22;2886;49.722;8.612;2023-02-01T18:41:15;7.00;99.90
5723;DHT22;2886;49.722;8.612;2023-02-01T18:43:42;7.10;99.90
5723;DHT22;2886;49.722;8.612;2023-02-01T18:46:11;7.10;99.90
5723;DHT22;2886;49.722;8.612;2023-02-01T18:48:37;7.00;99.90
5723;DHT22;2886;49.722;8.612;2023-02-01T18:51:03;7.10;99.90
5723;DHT22;2886;49.722;8.612;2023-02-01T18:53:29;7.10;99.90
5723;DHT22;2886;49.722;8.612;2023-02-01T18:55:58;7.10;99.90
5723;DHT22;2886;49.722;8.612;2023-02-01T18:58:24;7.10;99.90
5723;DHT22;2886;49.722;8.612;2023-02-01T19:00:52;7.10;99.90
5723;DHT22;2886;49.722;8.612;2023-02-01T19:03:18;7.10;99.90
5723;DHT22;2886;49.722;8.612;2023-02-01T19:05:45;7.20;99.90
5723;DHT22;2886;49.722;8.612;2023-02-01T19:08:11;7.20;99.90